メインページ
METAR-TAF:

METAR-TAF

空港 :

オタワ, オンタリオ州, カナダ

オタワ・マクドナルド・カルティエ国際空港

緯度: 45-19N, 経度: 075-40W, 海抜: 116m

現時点の気象観測

当レポートは30分前の11:38(UTC)に作成
の風 7kt
気温 -4°C
湿度 93%
気圧 1022 hPa
視程: 12.9km
高度1000ftの雲はほとんどない
高度5500ftの曇り

METAR: CYOW 241138Z 09007KT 8SM FEW010 OVC055 M04/M05 A3018 RMK SF2SC6 SLP229

時間: 08:08 (12:08 UTC)

予報

当レポートは29分前の11:39(UTC)に作成
予報は24日の 12時(UTC)から 25日の 12時(UTC)まで有効
南東の風 8kt
高度1500ftの曇り
小雪
24日の 12時(UTC)から 24日の 18時(UTC)まで一時的に
視程: 9.7km
高度2500ftの曇り
小雪
24日の 1800時(UTC)から
南西の風 8kt
視程: 6.4km
高度1000ftの曇り
小雨, 雪, 靄
24日の 2200時(UTC)から
南西の風 10kt
視程: 1.6km
高度600ftの曇り
小雨, 小霧雨, 靄
25日の 0000時(UTC)から
北西の風 5kt
視程: 8.0km
高度1000ftの曇り
小霧雨, 靄
25日の 0400時(UTC)から
北/北西の風 10kt
視程: 10km
高度2500ftの千切れ雲あり
高度10000ftの千切れ雲あり
25日の 1100時(UTC)から
の風 12kt
視程: 10km
高度2500ftの雲は散在している
高度15000ftの千切れ雲あり

TAF: CYOW 241139Z 2412/2512 14008KT 11/2SM -SN OVC015 TEMPO 2412/2418 6SM -SN OVC025 FM241800 22008KT 4SM -RASN BR OVC010 FM242200 23010KT 1SM -RA -DZ BR OVC006 FM250000 32005KT 5SM -DZ BR OVC010 FM250400 33010KT P6SM BKN025 BKN100 FM251100 01012KT P6SM SCT025 BKN150 RMK NXT FCST BY 241500Z

4,000以上の空港の気象観測と天気予報(METAR報とTAF報)

利用可能な観測所は地図上に黄色い丸と赤い丸で示す。

丸の上にカーソルを重ねると観測所名を参照できる。

次にクリックすると気象観測と天気予報を参照できる。

マップの切り替え:黒色「×」印の緑ボタンをクリックして拡大、「-」印の緑ボタンをクリックして縮小、緑色の三角印をクリックして隣りの地図に切り替え


METAR-TAF: